createdAt,value
2019-01-30T00:00:02.999Z,18.9
2019-01-30T00:00:53.233Z,18.9
2019-01-30T00:01:43.010Z,18.9
2019-01-30T00:02:33.454Z,18.9
2019-01-30T00:03:23.683Z,18.9
2019-01-30T00:04:13.544Z,18.9
2019-01-30T00:05:03.254Z,18.9
2019-01-30T00:05:53.298Z,18.9
2019-01-30T00:06:43.352Z,18.9
2019-01-30T00:07:33.702Z,18.9
2019-01-30T00:08:23.472Z,18.9
2019-01-30T00:09:14.085Z,18.9
2019-01-30T00:10:04.138Z,18.8
2019-01-30T00:10:53.654Z,18.9
2019-01-30T00:11:43.984Z,18.8
2019-01-30T00:12:34.030Z,18.8
2019-01-30T00:13:24.377Z,18.8
2019-01-30T00:14:14.487Z,18.9
2019-01-30T00:15:03.665Z,18.9
2019-01-30T00:16:00.107Z,18.9
2019-01-30T00:16:44.309Z,18.9
2019-01-30T00:17:34.104Z,18.9
2019-01-30T00:18:24.714Z,18.8
2019-01-30T00:19:13.934Z,18.9
2019-01-30T00:20:04.559Z,18.8
2019-01-30T00:20:54.334Z,18.8
2019-01-30T00:21:44.384Z,18.8
2019-01-30T00:22:34.991Z,18.8
2019-01-30T00:23:24.592Z,18.8
2019-01-30T00:24:15.112Z,18.8
2019-01-30T00:25:04.906Z,18.8
2019-01-30T00:25:55.241Z,18.9
2019-01-30T00:26:45.304Z,18.8
2019-01-30T00:27:35.093Z,18.8
2019-01-30T00:28:25.411Z,18.8
2019-01-30T00:29:15.549Z,18.8
2019-01-30T00:30:07.466Z,18.8
2019-01-30T00:30:55.623Z,18.8
2019-01-30T00:31:45.356Z,18.8
2019-01-30T00:32:35.157Z,18.8
2019-01-30T00:33:25.469Z,18.8
2019-01-30T00:34:15.541Z,18.8
2019-01-30T00:35:05.314Z,18.8
2019-01-30T00:35:55.726Z,18.8
2019-01-30T00:36:45.156Z,18.8
2019-01-30T00:37:35.754Z,18.8
2019-01-30T00:38:26.105Z,18.8
2019-01-30T00:39:15.595Z,18.8
2019-01-30T00:40:06.225Z,18.8
2019-01-30T00:40:55.790Z,18.8
2019-01-30T00:41:45.501Z,18.8
2019-01-30T00:42:36.098Z,18.8
2019-01-30T00:43:26.179Z,18.8
2019-01-30T00:44:16.208Z,18.8
2019-01-30T00:45:06.000Z,18.8
2019-01-30T00:45:56.065Z,18.8
2019-01-30T00:46:46.442Z,18.8
2019-01-30T00:47:38.435Z,18.8
2019-01-30T00:48:26.778Z,18.8
2019-01-30T00:49:16.621Z,18.8
2019-01-30T00:50:06.613Z,18.8
2019-01-30T00:50:56.672Z,18.8
2019-01-30T00:51:46.463Z,18.8
2019-01-30T00:52:36.800Z,18.8
2019-01-30T00:53:27.134Z,18.8
2019-01-30T00:54:16.458Z,18.8
2019-01-30T00:55:06.965Z,18.8
2019-01-30T00:55:57.040Z,18.8
2019-01-30T00:56:47.353Z,18.8
2019-01-30T00:57:37.419Z,18.8
2019-01-30T00:58:26.935Z,18.8
2019-01-30T00:59:17.258Z,18.8
2019-01-30T01:00:16.994Z,18.8
2019-01-30T01:00:59.347Z,18.8
2019-01-30T01:01:47.429Z,18.8
2019-01-30T01:02:37.494Z,18.8
2019-01-30T01:03:27.303Z,18.8
2019-01-30T01:04:17.877Z,18.8
2019-01-30T01:05:07.645Z,18.8
2019-01-30T01:05:57.992Z,18.8
2019-01-30T01:06:48.059Z,18.8
2019-01-30T01:07:37.856Z,18.8
2019-01-30T01:08:27.886Z,18.8
2019-01-30T01:09:18.259Z,18.8
2019-01-30T01:10:07.494Z,18.8
2019-01-30T01:10:58.054Z,18.8
2019-01-30T01:11:47.896Z,18.8
2019-01-30T01:12:37.898Z,18.8
2019-01-30T01:13:27.459Z,18.8
2019-01-30T01:14:18.013Z,18.8
2019-01-30T01:15:08.349Z,18.8
2019-01-30T01:15:58.413Z,18.8
2019-01-30T01:16:48.733Z,18.8
2019-01-30T01:17:38.506Z,18.8
2019-01-30T01:18:28.098Z,18.8
2019-01-30T01:19:18.686Z,18.8
2019-01-30T01:20:08.958Z,18.8
2019-01-30T01:20:59.053Z,18.8
2019-01-30T01:21:48.803Z,18.8
2019-01-30T01:22:38.403Z,18.8
2019-01-30T01:23:29.318Z,18.8
2019-01-30T01:24:18.982Z,18.8
2019-01-30T01:25:09.035Z,18.8
2019-01-30T01:25:59.095Z,18.8
2019-01-30T01:26:49.146Z,18.8
2019-01-30T01:27:39.482Z,18.8
2019-01-30T01:28:29.258Z,18.8
2019-01-30T01:29:19.582Z,18.8
2019-01-30T01:30:09.375Z,18.8
2019-01-30T01:30:58.891Z,18.8
2019-01-30T01:31:49.580Z,18.8
2019-01-30T01:32:39.287Z,18.8
2019-01-30T01:33:29.931Z,18.8
2019-01-30T01:34:19.662Z,18.8
2019-01-30T01:35:09.452Z,18.8
2019-01-30T01:35:59.228Z,18.8
2019-01-30T01:36:49.566Z,18.8
2019-01-30T01:37:39.904Z,18.8
2019-01-30T01:38:30.225Z,18.8
2019-01-30T01:39:20.019Z,18.8
2019-01-30T01:40:09.827Z,18.8
2019-01-30T01:41:00.397Z,18.8
2019-01-30T01:41:50.474Z,18.8
2019-01-30T01:42:40.521Z,18.8
2019-01-30T01:43:30.022Z,18.8
2019-01-30T01:44:20.377Z,18.8
2019-01-30T01:45:10.417Z,18.8
2019-01-30T01:46:00.489Z,18.8
2019-01-30T01:46:50.254Z,18.8
2019-01-30T01:47:40.595Z,18.8
2019-01-30T01:48:30.926Z,18.8
2019-01-30T01:49:20.999Z,18.8
2019-01-30T01:50:10.764Z,18.8
2019-01-30T01:51:01.091Z,18.8
2019-01-30T01:51:51.146Z,18.8
2019-01-30T01:52:40.659Z,18.8
2019-01-30T01:53:30.711Z,18.8
2019-01-30T01:54:21.041Z,18.8
2019-01-30T01:55:11.099Z,18.8
2019-01-30T01:56:01.154Z,18.8
2019-01-30T01:56:51.233Z,18.8
2019-01-30T01:57:41.295Z,18.8
2019-01-30T01:58:31.053Z,18.8
2019-01-30T01:59:21.108Z,18.8
2019-01-30T02:00:11.195Z,18.8
2019-01-30T02:01:01.802Z,18.8
2019-01-30T02:01:51.838Z,18.8
2019-01-30T02:02:41.898Z,18.8
2019-01-30T02:03:31.963Z,18.8
2019-01-30T02:04:22.018Z,18.8
2019-01-30T02:05:12.092Z,18.8
2019-01-30T02:06:01.577Z,18.8
2019-01-30T02:06:51.912Z,18.8
2019-01-30T02:07:41.698Z,18.8
2019-01-30T02:08:32.033Z,18.8
2019-01-30T02:09:22.362Z,18.8
2019-01-30T02:10:11.585Z,18.8
2019-01-30T02:11:02.205Z,18.8
2019-01-30T02:11:52.507Z,18.8
2019-01-30T02:12:42.322Z,18.8
2019-01-30T02:13:32.365Z,18.8
2019-01-30T02:14:22.425Z,18.8
2019-01-30T02:15:12.487Z,18.8
2019-01-30T02:16:01.999Z,18.8
2019-01-30T02:16:52.876Z,18.8
2019-01-30T02:17:42.391Z,18.8
2019-01-30T02:18:32.992Z,18.8
2019-01-30T02:19:23.147Z,18.8
2019-01-30T02:20:12.658Z,18.8
2019-01-30T02:21:02.899Z,18.8
2019-01-30T02:21:53.217Z,18.8
2019-01-30T02:22:43.002Z,18.8
2019-01-30T02:23:33.151Z,18.8
2019-01-30T02:24:23.120Z,18.8
2019-01-30T02:25:13.176Z,18.8
2019-01-30T02:26:03.233Z,18.8
2019-01-30T02:26:52.736Z,18.8
2019-01-30T02:27:43.623Z,18.8
2019-01-30T02:28:33.674Z,18.8
2019-01-30T02:30:13.544Z,18.8
2019-01-30T02:31:03.082Z,18.8
2019-01-30T02:31:53.656Z,18.8
2019-01-30T02:32:43.710Z,18.8
2019-01-30T02:33:34.041Z,18.8
2019-01-30T02:34:23.544Z,18.8
2019-01-30T02:35:13.896Z,18.8
2019-01-30T02:36:54.294Z,18.8
2019-01-30T02:37:44.337Z,18.8
2019-01-30T02:38:34.197Z,18.8
2019-01-30T02:39:24.153Z,18.8
2019-01-30T02:40:14.543Z,18.8
2019-01-30T02:41:04.280Z,18.8
2019-01-30T02:41:54.124Z,18.8
2019-01-30T02:42:44.433Z,18.8
2019-01-30T02:43:34.463Z,18.8
2019-01-30T02:44:24.493Z,18.8
2019-01-30T02:45:14.875Z,18.8
2019-01-30T02:46:04.674Z,18.8
2019-01-30T02:46:54.418Z,18.8
2019-01-30T02:47:44.456Z,18.8
2019-01-30T02:48:34.657Z,18.8
2019-01-30T02:49:24.298Z,18.8
2019-01-30T02:50:14.379Z,18.8
2019-01-30T02:51:04.967Z,18.8
2019-01-30T02:51:55.027Z,18.8
2019-01-30T02:52:44.308Z,18.8
2019-01-30T02:53:34.998Z,18.8
2019-01-30T02:54:24.662Z,18.8
2019-01-30T02:55:14.967Z,18.8
2019-01-30T02:56:05.367Z,18.8
2019-01-30T02:56:55.364Z,18.8
2019-01-30T02:57:45.482Z,18.8
2019-01-30T02:58:35.747Z,18.8
2019-01-30T02:59:25.605Z,18.8
2019-01-30T03:00:16.015Z,18.8
2019-01-30T03:01:05.114Z,18.8
2019-01-30T03:01:55.406Z,18.8
2019-01-30T03:02:46.029Z,18.8
2019-01-30T03:03:35.831Z,18.8
2019-01-30T03:04:25.314Z,18.8
2019-01-30T03:05:16.342Z,18.8
2019-01-30T03:08:27.544Z,18.8
2019-01-30T03:09:17.268Z,18.8
2019-01-30T03:10:07.591Z,18.8
2019-01-30T03:10:57.109Z,18.8
2019-01-30T03:11:47.726Z,18.8
2019-01-30T03:12:37.792Z,18.8
2019-01-30T03:13:27.628Z,18.8
2019-01-30T03:14:17.893Z,18.8
2019-01-30T03:15:07.653Z,18.8
2019-01-30T03:15:57.721Z,18.9
2019-01-30T03:16:48.131Z,18.8
2019-01-30T03:17:38.134Z,18.8
2019-01-30T03:18:28.180Z,18.8
2019-01-30T03:19:17.685Z,18.9
2019-01-30T03:20:08.313Z,18.8
2019-01-30T03:20:58.328Z,18.9
2019-01-30T03:21:48.410Z,18.9
2019-01-30T03:22:38.446Z,18.9
2019-01-30T03:23:28.246Z,18.9
2019-01-30T03:24:18.291Z,18.9
2019-01-30T03:25:08.630Z,18.9
2019-01-30T03:25:58.786Z,18.9
2019-01-30T03:26:48.302Z,18.9
2019-01-30T03:27:38.801Z,18.9
2019-01-30T03:28:28.567Z,18.9
2019-01-30T03:29:18.646Z,18.9
2019-01-30T03:30:08.736Z,18.9
2019-01-30T03:31:15.538Z,18.9
2019-01-30T03:31:49.134Z,18.9
2019-01-30T03:32:39.226Z,18.9
2019-01-30T03:33:29.038Z,18.9
2019-01-30T03:34:19.010Z,18.9
2019-01-30T03:35:09.036Z,18.9
2019-01-30T03:35:59.353Z,18.9
2019-01-30T03:36:49.418Z,18.9
2019-01-30T03:37:38.915Z,18.9
2019-01-30T03:38:29.012Z,18.9
2019-01-30T03:39:19.319Z,18.9
2019-01-30T03:40:09.079Z,18.9
2019-01-30T03:40:59.149Z,18.9
2019-01-30T03:41:49.476Z,18.9
2019-01-30T03:42:39.839Z,18.9
2019-01-30T03:43:29.621Z,18.9
2019-01-30T03:44:19.663Z,18.9
2019-01-30T03:45:09.754Z,18.9
2019-01-30T03:46:00.046Z,18.9
2019-01-30T03:46:49.286Z,18.9
2019-01-30T03:47:40.161Z,18.9
2019-01-30T03:48:29.661Z,18.9
2019-01-30T03:49:20.301Z,18.9
2019-01-30T03:50:10.317Z,18.9
2019-01-30T03:50:59.837Z,18.9
2019-01-30T03:51:50.471Z,18.9
2019-01-30T03:52:40.490Z,18.9
2019-01-30T03:53:29.996Z,18.9
2019-01-30T03:54:20.346Z,18.9
2019-01-30T03:55:10.406Z,18.9
2019-01-30T03:55:59.896Z,18.9
2019-01-30T03:56:50.510Z,18.9
2019-01-30T03:57:40.878Z,18.9
2019-01-30T03:58:30.645Z,18.9
2019-01-30T03:59:20.418Z,18.9
2019-01-30T04:00:11.016Z,18.9
2019-01-30T04:01:00.822Z,18.9
2019-01-30T04:01:50.877Z,18.9
2019-01-30T04:02:41.177Z,18.9
2019-01-30T04:03:31.252Z,18.9
2019-01-30T04:04:21.314Z,18.9
2019-01-30T04:05:11.370Z,18.9
2019-01-30T04:06:01.427Z,18.9
2019-01-30T04:06:51.341Z,18.9
2019-01-30T04:07:41.259Z,18.9
2019-01-30T04:08:30.753Z,18.9
2019-01-30T04:09:21.373Z,18.9
2019-01-30T04:10:11.471Z,18.9
2019-01-30T04:11:01.544Z,18.9
2019-01-30T04:11:51.814Z,18.9
2019-01-30T04:12:41.874Z,18.9
2019-01-30T04:13:31.644Z,18.9
2019-01-30T04:14:21.717Z,18.9
2019-01-30T04:15:11.802Z,18.9
2019-01-30T04:16:02.092Z,18.9
2019-01-30T04:16:52.163Z,18.9
2019-01-30T04:17:41.995Z,18.9
2019-01-30T04:18:32.271Z,18.9
2019-01-30T04:19:22.039Z,18.9
2019-01-30T04:20:11.874Z,18.9
2019-01-30T04:21:02.160Z,18.9
2019-01-30T04:21:52.519Z,18.9
2019-01-30T04:22:42.567Z,18.9
2019-01-30T04:23:32.625Z,18.9
2019-01-30T04:24:22.684Z,18.9
2019-01-30T04:25:12.919Z,18.9
2019-01-30T04:26:02.669Z,18.9
2019-01-30T04:26:52.882Z,18.9
2019-01-30T04:27:42.404Z,18.9
2019-01-30T04:28:32.988Z,18.9
2019-01-30T04:29:23.184Z,18.9
2019-01-30T04:30:13.082Z,18.9
2019-01-30T04:31:03.132Z,18.9
2019-01-30T04:31:53.229Z,18.9
2019-01-30T04:32:42.694Z,18.9
2019-01-30T04:33:33.027Z,18.9
2019-01-30T04:34:23.396Z,18.9
2019-01-30T04:35:13.436Z,18.9
2019-01-30T04:36:02.938Z,18.9
2019-01-30T04:36:53.245Z,18.9
2019-01-30T04:37:43.608Z,18.9
2019-01-30T04:38:33.379Z,18.9
2019-01-30T04:39:23.797Z,18.9
2019-01-30T04:40:13.485Z,18.9
2019-01-30T04:41:03.273Z,18.9
2019-01-30T04:41:53.588Z,18.9
2019-01-30T04:42:43.672Z,18.9
2019-01-30T04:43:34.002Z,18.9
2019-01-30T04:44:23.777Z,18.9
2019-01-30T04:45:13.826Z,18.9
2019-01-30T04:46:04.175Z,18.9
2019-01-30T04:46:53.935Z,18.9
2019-01-30T04:47:43.813Z,18.9
2019-01-30T04:48:34.071Z,18.9
2019-01-30T04:49:24.380Z,18.9
2019-01-30T04:50:14.565Z,18.9
2019-01-30T04:51:04.526Z,18.9
2019-01-30T04:51:54.546Z,18.9
2019-01-30T04:52:44.092Z,18.9
2019-01-30T04:53:34.399Z,18.9
2019-01-30T04:54:24.447Z,18.9
2019-01-30T04:55:14.775Z,18.9
2019-01-30T04:56:04.480Z,18.9
2019-01-30T04:56:54.335Z,18.9
2019-01-30T04:57:44.966Z,18.9
2019-01-30T04:58:34.766Z,18.9
2019-01-30T04:59:24.804Z,18.9
2019-01-30T05:00:14.892Z,18.9
2019-01-30T05:01:05.169Z,18.9
2019-01-30T05:01:54.990Z,18.9
2019-01-30T05:02:45.319Z,18.9
2019-01-30T05:03:34.811Z,18.9
2019-01-30T05:04:24.887Z,18.9
2019-01-30T05:05:15.553Z,18.9
2019-01-30T05:06:05.021Z,18.9
2019-01-30T05:06:55.594Z,18.9
2019-01-30T05:07:45.362Z,18.9
2019-01-30T05:08:35.153Z,18.9
2019-01-30T05:09:25.769Z,18.9
2019-01-30T05:10:15.832Z,18.9
2019-01-30T05:11:05.867Z,18.9
2019-01-30T05:11:55.658Z,18.9
2019-01-30T05:12:45.726Z,18.9
2019-01-30T05:13:35.846Z,18.9
2019-01-30T05:14:25.815Z,18.9
2019-01-30T05:15:15.900Z,18.9
2019-01-30T05:16:06.274Z,18.9
2019-01-30T05:16:55.997Z,18.9
2019-01-30T05:17:45.764Z,18.9
2019-01-30T05:18:36.131Z,18.9
2019-01-30T05:19:26.270Z,18.9
2019-01-30T05:20:16.272Z,18.9
2019-01-30T05:21:06.272Z,18.9
2019-01-30T05:21:56.610Z,18.9
2019-01-30T05:22:46.420Z,18.9
2019-01-30T05:23:36.868Z,18.9
2019-01-30T05:24:26.543Z,18.9
2019-01-30T05:25:16.589Z,18.9
2019-01-30T05:26:06.645Z,18.9
2019-01-30T05:26:56.939Z,18.9
2019-01-30T05:27:46.718Z,18.9
2019-01-30T05:28:37.054Z,19
2019-01-30T05:29:27.137Z,18.9
2019-01-30T05:30:16.626Z,18.9
2019-01-30T05:31:06.949Z,18.9
2019-01-30T05:32:04.402Z,18.9
2019-01-30T05:32:47.052Z,18.9
2019-01-30T05:33:37.122Z,18.9
2019-01-30T05:34:27.482Z,18.9
2019-01-30T05:35:17.319Z,18.9
2019-01-30T05:36:07.569Z,18.9
2019-01-30T05:36:57.642Z,18.9
2019-01-30T05:37:47.397Z,18.9
2019-01-30T05:38:37.784Z,19
2019-01-30T05:39:27.837Z,18.9
2019-01-30T05:40:17.869Z,19
2019-01-30T05:41:07.941Z,18.9
2019-01-30T05:41:57.453Z,18.9
2019-01-30T05:42:47.756Z,18.9
2019-01-30T05:43:38.083Z,18.9
2019-01-30T05:44:28.302Z,18.9
2019-01-30T05:45:18.312Z,18.9
2019-01-30T05:46:08.248Z,18.9
2019-01-30T05:46:58.328Z,18.9
2019-01-30T05:47:48.236Z,18.9
2019-01-30T05:48:38.166Z,18.9
2019-01-30T05:49:31.183Z,19
2019-01-30T05:50:18.544Z,19.1
2019-01-30T05:51:08.081Z,19.1
2019-01-30T05:51:58.623Z,19.2
2019-01-30T05:52:48.468Z,19.2
2019-01-30T05:53:38.753Z,19.3
2019-01-30T05:54:28.819Z,19.3
2019-01-30T05:55:18.321Z,19.3
2019-01-30T05:56:08.952Z,19.3
2019-01-30T05:56:59.006Z,19.3
2019-01-30T05:57:49.096Z,19.3
2019-01-30T05:58:38.957Z,19.3
2019-01-30T05:59:28.663Z,19.2
2019-01-30T06:00:19.210Z,19.2
2019-01-30T06:01:09.270Z,19.2
2019-01-30T06:01:59.309Z,19.2
2019-01-30T06:02:49.370Z,19.2
2019-01-30T06:03:39.474Z,19.2
2019-01-30T06:04:29.547Z,19.2
2019-01-30T06:06:26.797Z,19.1
2019-01-30T06:07:16.532Z,19.1
2019-01-30T06:08:07.191Z,19.2
2019-01-30T06:08:56.912Z,19.2
2019-01-30T06:09:47.529Z,19.1
2019-01-30T06:10:37.301Z,19.2
2019-01-30T06:11:27.377Z,19.1
2019-01-30T06:12:17.422Z,19.1
2019-01-30T06:13:07.757Z,19.1
2019-01-30T06:13:57.541Z,19.1
2019-01-30T06:14:47.372Z,19.1
2019-01-30T06:15:37.929Z,19.1
2019-01-30T06:16:27.976Z,19.1
2019-01-30T06:17:17.224Z,19.1
2019-01-30T06:18:07.859Z,19.1
2019-01-30T06:18:57.878Z,19.1
2019-01-30T06:19:47.917Z,19.1
2019-01-30T06:20:38.069Z,19.1
2019-01-30T06:21:27.762Z,19.1
2019-01-30T06:22:17.838Z,19.1
2019-01-30T06:23:08.221Z,19.1
2019-01-30T06:23:58.530Z,19.1
2019-01-30T06:24:48.594Z,19.1
2019-01-30T06:25:38.714Z,19.1
2019-01-30T06:26:28.404Z,19.1
2019-01-30T06:27:18.735Z,19.1
2019-01-30T06:28:08.804Z,19.1
2019-01-30T06:28:58.100Z,19.1
2019-01-30T06:29:48.618Z,19.1
2019-01-30T06:30:38.965Z,19.1
2019-01-30T06:31:30.515Z,19.1
2019-01-30T06:32:25.162Z,19.1
2019-01-30T06:33:08.585Z,19.1
2019-01-30T06:33:59.191Z,19.1
2019-01-30T06:34:49.243Z,19.1
2019-01-30T06:35:39.321Z,19.1
2019-01-30T06:36:28.538Z,19.1
2019-01-30T06:37:21.484Z,19.1
2019-01-30T06:38:08.732Z,19.1
2019-01-30T06:38:59.090Z,19.1
2019-01-30T06:39:49.049Z,19.1
2019-01-30T06:40:39.642Z,19.1
2019-01-30T06:41:29.409Z,19.1
2019-01-30T06:42:19.782Z,19.1
2019-01-30T06:43:09.534Z,19.1
2019-01-30T06:43:59.327Z,19.1
2019-01-30T06:44:49.969Z,19.1
2019-01-30T06:45:39.967Z,19.1
2019-01-30T06:46:29.782Z,19.1
2019-01-30T06:47:19.697Z,19.1
2019-01-30T06:48:09.692Z,19.1
2019-01-30T06:49:00.253Z,19.1
2019-01-30T06:49:50.284Z,19.1
2019-01-30T06:50:40.367Z,19.1
2019-01-30T06:51:30.098Z,19.1
2019-01-30T06:52:19.977Z,19.1
2019-01-30T06:53:10.264Z,19.1
2019-01-30T06:54:00.597Z,19.1
2019-01-30T06:54:50.068Z,19
2019-01-30T06:55:40.390Z,19.1
2019-01-30T06:56:30.776Z,19.1
2019-01-30T06:57:19.689Z,19
2019-01-30T06:58:10.014Z,19.1
2019-01-30T06:59:00.359Z,19
2019-01-30T06:59:50.674Z,19
2019-01-30T07:00:40.441Z,19
2019-01-30T07:01:30.248Z,19
2019-01-30T07:02:20.936Z,19
2019-01-30T07:03:10.916Z,19
2019-01-30T07:04:01.247Z,19
2019-01-30T07:06:27.303Z,19
2019-01-30T07:07:17.024Z,19
2019-01-30T07:08:07.476Z,19
2019-01-30T07:08:57.139Z,19
2019-01-30T07:09:47.476Z,19
2019-01-30T07:10:37.525Z,19
2019-01-30T07:11:27.373Z,19
2019-01-30T07:12:17.649Z,19
2019-01-30T07:13:07.441Z,19
2019-01-30T07:13:57.866Z,19
2019-01-30T07:14:47.266Z,19
2019-01-30T07:15:37.328Z,19
2019-01-30T07:16:27.368Z,19
2019-01-30T07:17:17.708Z,19
2019-01-30T07:18:07.780Z,18.9
2019-01-30T07:18:58.210Z,19
2019-01-30T07:19:47.613Z,19
2019-01-30T07:20:37.670Z,19
2019-01-30T07:21:27.993Z,19
2019-01-30T07:22:18.145Z,19
2019-01-30T07:23:07.834Z,19
2019-01-30T07:23:58.183Z,19
2019-01-30T07:24:48.008Z,18.9
2019-01-30T07:25:39.756Z,18.9
2019-01-30T07:26:28.339Z,19
2019-01-30T07:27:17.841Z,19
2019-01-30T07:28:08.743Z,19
2019-01-30T07:28:58.234Z,19
2019-01-30T07:29:48.556Z,18.9
2019-01-30T07:30:37.903Z,18.9
2019-01-30T07:31:28.743Z,18.9
2019-01-30T07:32:19.005Z,19
2019-01-30T07:33:08.805Z,18.9
2019-01-30T07:33:58.840Z,19
2019-01-30T07:34:48.430Z,19
2019-01-30T07:35:38.698Z,18.9
2019-01-30T07:36:29.293Z,18.9
2019-01-30T07:37:19.363Z,18.9
2019-01-30T07:38:08.587Z,18.9
2019-01-30T07:38:58.913Z,18.9
2019-01-30T07:39:49.294Z,18.9
2019-01-30T07:40:39.092Z,18.9
2019-01-30T07:41:29.372Z,18.9
2019-01-30T07:42:19.420Z,18.9
2019-01-30T07:43:09.482Z,18.9
2019-01-30T07:43:59.550Z,18.9
2019-01-30T07:44:53.882Z,18.9
2019-01-30T07:45:39.941Z,18.9
2019-01-30T07:46:29.982Z,18.9
2019-01-30T07:47:19.229Z,18.9
2019-01-30T07:48:10.082Z,18.9
2019-01-30T07:48:59.602Z,18.9
2019-01-30T07:49:49.659Z,18.9
2019-01-30T07:50:39.985Z,18.9
2019-01-30T07:51:30.044Z,18.9
2019-01-30T07:52:20.106Z,18.9
2019-01-30T07:53:10.439Z,18.9
2019-01-30T07:54:00.601Z,18.9
2019-01-30T07:54:50.282Z,18.9
2019-01-30T07:55:40.328Z,18.9
2019-01-30T07:56:31.886Z,18.9
2019-01-30T07:57:20.712Z,18.9
2019-01-30T07:58:10.515Z,18.9
2019-01-30T07:59:00.301Z,18.9
2019-01-30T07:59:50.990Z,18.9
2019-01-30T08:00:40.951Z,18.9
2019-01-30T08:01:31.011Z,18.9
2019-01-30T08:02:23.475Z,18.9
2019-01-30T08:03:10.852Z,18.9
2019-01-30T08:04:00.884Z,18.9
2019-01-30T08:04:50.122Z,18.9
2019-01-30T08:05:40.728Z,18.9
2019-01-30T08:06:31.079Z,18.9
2019-01-30T08:07:20.871Z,18.9
2019-01-30T08:08:10.915Z,18.9
2019-01-30T08:09:01.523Z,18.9
2019-01-30T08:09:51.105Z,18.9
2019-01-30T08:10:41.161Z,18.9
2019-01-30T08:11:34.118Z,18.9
2019-01-30T08:12:21.468Z,18.9
2019-01-30T08:13:11.570Z,18.9
2019-01-30T08:14:04.853Z,18.9
2019-01-30T08:14:51.918Z,18.9
2019-01-30T08:15:41.712Z,18.9
2019-01-30T08:16:32.053Z,18.9
2019-01-30T08:17:24.523Z,18.9
2019-01-30T08:18:11.922Z,18.9
2019-01-30T08:19:01.653Z,18.9
2019-01-30T08:19:54.407Z,18.9
2019-01-30T08:20:42.072Z,18.9
2019-01-30T08:21:32.110Z,18.9
2019-01-30T08:22:22.430Z,18.9
2019-01-30T08:23:13.193Z,18.9
2019-01-30T08:24:04.254Z,18.9
2019-01-30T08:24:53.306Z,18.9
2019-01-30T08:25:43.776Z,18.9
2019-01-30T08:26:34.288Z,18.9
2019-01-30T08:27:23.961Z,18.9
2019-01-30T08:28:16.586Z,18.9
2019-01-30T08:29:04.107Z,18.9
2019-01-30T08:29:54.064Z,18.9
2019-01-30T08:30:44.019Z,18.9
2019-01-30T08:31:33.862Z,18.9
2019-01-30T08:32:26.536Z,18.9
2019-01-30T08:33:13.604Z,18.9
2019-01-30T08:34:02.967Z,18.9
2019-01-30T08:34:53.289Z,18.9
2019-01-30T08:35:42.888Z,18.9
2019-01-30T08:36:33.169Z,18.9
2019-01-30T08:37:23.176Z,18.9
2019-01-30T08:38:13.299Z,18.9
2019-01-30T08:39:03.304Z,18.9
2019-01-30T08:39:53.406Z,18.9
2019-01-30T08:40:43.684Z,18.9
2019-01-30T08:41:33.856Z,18.9
2019-01-30T08:42:23.793Z,18.9
2019-01-30T08:43:13.296Z,18.8
2019-01-30T08:44:03.716Z,18.8
2019-01-30T08:44:53.748Z,18.9
2019-01-30T08:45:43.754Z,18.8
2019-01-30T08:46:34.197Z,18.9
2019-01-30T08:47:24.138Z,18.8
2019-01-30T08:48:13.419Z,18.9
2019-01-30T08:49:03.980Z,18.8
2019-01-30T08:49:53.756Z,18.8
2019-01-30T08:50:44.080Z,18.9
2019-01-30T08:51:34.133Z,18.8
2019-01-30T08:52:24.313Z,18.9
2019-01-30T08:53:14.072Z,18.9
2019-01-30T08:54:03.945Z,18.8
2019-01-30T08:54:53.845Z,18.9
2019-01-30T08:55:44.713Z,18.8
2019-01-30T08:56:55.109Z,18.8
2019-01-30T08:57:24.549Z,18.8
2019-01-30T08:58:14.608Z,18.8
2019-01-30T08:59:07.785Z,18.8
2019-01-30T08:59:53.785Z,18.8
2019-01-30T09:00:44.500Z,18.9
2019-01-30T09:01:35.098Z,18.8
2019-01-30T09:02:25.198Z,18.8
2019-01-30T09:03:18.202Z,18.8
2019-01-30T09:04:05.356Z,18.8
2019-01-30T09:04:54.780Z,18.8
2019-01-30T09:05:44.935Z,18.8
2019-01-30T09:06:35.453Z,18.8
2019-01-30T09:07:25.245Z,18.8
2019-01-30T09:08:15.377Z,18.8
2019-01-30T09:09:05.629Z,18.8
2019-01-30T09:09:55.414Z,18.8
2019-01-30T09:10:45.175Z,18.8
2019-01-30T09:11:35.501Z,18.8
2019-01-30T09:12:25.338Z,18.8
2019-01-30T09:13:15.359Z,18.8
2019-01-30T09:14:05.402Z,18.8
2019-01-30T09:14:55.839Z,18.8
2019-01-30T09:15:46.059Z,18.8
2019-01-30T09:16:35.857Z,18.8
2019-01-30T09:17:26.179Z,18.8
2019-01-30T09:18:16.270Z,18.8
2019-01-30T09:19:06.132Z,18.8
2019-01-30T09:19:56.449Z,18.8
2019-01-30T09:20:46.141Z,18.8
2019-01-30T09:21:36.193Z,18.8
2019-01-30T09:22:25.968Z,18.8
2019-01-30T09:23:16.073Z,18.8
2019-01-30T09:24:06.628Z,18.8
2019-01-30T09:24:56.808Z,18.8
2019-01-30T09:25:46.496Z,18.8
2019-01-30T09:26:36.021Z,18.8
2019-01-30T09:27:27.472Z,18.8
2019-01-30T09:28:16.652Z,18.9
2019-01-30T09:29:06.431Z,18.8
2019-01-30T09:29:56.468Z,18.8
2019-01-30T09:30:46.957Z,18.8
2019-01-30T09:31:37.200Z,18.8
2019-01-30T09:32:26.643Z,18.8
2019-01-30T09:33:28.593Z,18.8
2019-01-30T09:34:07.275Z,18.8
2019-01-30T09:34:56.883Z,18.8
2019-01-30T09:35:47.121Z,18.8
2019-01-30T09:36:37.405Z,18.8
2019-01-30T09:37:30.083Z,18.8
2019-01-30T09:38:17.376Z,18.8
2019-01-30T09:39:07.680Z,18.8
2019-01-30T09:39:57.737Z,18.8
2019-01-30T09:40:47.203Z,18.8
2019-01-30T09:41:37.922Z,18.8
2019-01-30T09:42:27.633Z,18.8
2019-01-30T09:43:17.830Z,18.8
2019-01-30T09:44:07.881Z,18.8
2019-01-30T09:44:57.803Z,18.8
2019-01-30T09:45:47.662Z,18.8
2019-01-30T09:46:38.257Z,18.8
2019-01-30T09:47:27.982Z,18.8
2019-01-30T09:48:17.358Z,18.8
2019-01-30T09:49:08.307Z,18.8
2019-01-30T09:49:58.183Z,18.8
2019-01-30T09:50:47.719Z,18.8
2019-01-30T09:51:38.515Z,18.8
2019-01-30T09:52:30.030Z,18.8
2019-01-30T09:53:18.784Z,18.8
2019-01-30T09:54:08.461Z,18.8
2019-01-30T09:54:58.567Z,18.8
2019-01-30T09:55:48.652Z,18.8
2019-01-30T09:56:38.702Z,18.8
2019-01-30T09:57:28.917Z,18.8
2019-01-30T09:58:18.706Z,18.8
2019-01-30T09:59:08.754Z,18.8
2019-01-30T09:59:58.824Z,18.8
2019-01-30T10:00:49.155Z,18.8
2019-01-30T10:01:38.951Z,18.8
2019-01-30T10:02:29.091Z,18.8
2019-01-30T10:03:19.049Z,18.8
2019-01-30T10:04:08.818Z,18.8
2019-01-30T10:04:59.143Z,18.8
2019-01-30T10:07:27.885Z,16.6
2019-01-30T10:08:16.890Z,17.6
2019-01-30T10:09:07.223Z,18.1
2019-01-30T10:09:56.990Z,18.3
2019-01-30T10:10:47.325Z,18.3
2019-01-30T10:11:36.956Z,18.4
2019-01-30T10:12:27.140Z,18.4
2019-01-30T10:13:17.231Z,18.4
2019-01-30T10:14:07.269Z,18.5
2019-01-30T10:14:57.325Z,18.5
2019-01-30T10:15:47.717Z,18.5
2019-01-30T10:16:37.438Z,18.6
2019-01-30T10:17:27.505Z,18.6
2019-01-30T10:18:17.840Z,18.6
2019-01-30T10:19:07.359Z,18.6
2019-01-30T10:19:57.806Z,18.6
2019-01-30T10:20:47.743Z,18.6
2019-01-30T10:21:38.076Z,18.6
2019-01-30T10:22:27.662Z,18.6
2019-01-30T10:23:17.647Z,18.6
2019-01-30T10:24:57.751Z,18.8
2019-01-30T10:25:48.383Z,18.9
2019-01-30T10:26:38.432Z,18.9
2019-01-30T10:27:27.922Z,18.8
2019-01-30T10:28:20.056Z,18.9
2019-01-30T10:29:08.625Z,18.8
2019-01-30T10:30:01.393Z,18.8
2019-01-30T10:30:48.171Z,18.8
2019-01-30T10:31:38.760Z,18.8
2019-01-30T10:32:28.844Z,18.8
2019-01-30T10:33:18.628Z,18.8
2019-01-30T10:34:08.664Z,18.8
2019-01-30T10:34:58.803Z,18.8
2019-01-30T10:35:48.803Z,18.8
2019-01-30T10:36:38.999Z,21.8
2019-01-30T10:37:28.610Z,37.4
2019-01-30T10:38:19.352Z,54.8
2019-01-30T10:39:09.062Z,60.3
2019-01-30T10:39:59.078Z,59.7
2019-01-30T10:40:48.937Z,55.6
2019-01-30T10:41:39.465Z,53.1
2019-01-30T10:42:28.697Z,51.8
2019-01-30T10:43:19.298Z,50.9
2019-01-30T10:44:09.655Z,50.1
2019-01-30T10:44:59.415Z,49.4
2019-01-30T10:45:49.489Z,48.6
2019-01-30T10:46:39.269Z,47.9
2019-01-30T10:47:29.109Z,47.2
2019-01-30T10:48:19.934Z,46.6
2019-01-30T10:49:10.050Z,45.9
2019-01-30T10:50:00.048Z,45.2
2019-01-30T10:50:49.912Z,44.6
2019-01-30T10:51:39.884Z,44
2019-01-30T10:52:29.944Z,43.4
2019-01-30T10:53:20.036Z,42.8
2019-01-30T10:54:10.059Z,42.3
2019-01-30T10:55:00.407Z,41.8
2019-01-30T10:55:49.626Z,41.3
2019-01-30T10:56:40.511Z,40.8
2019-01-30T10:57:30.018Z,40.3
2019-01-30T10:58:19.801Z,39.8
2019-01-30T10:59:10.746Z,39.3
2019-01-30T11:00:00.916Z,38.9
2019-01-30T11:00:50.977Z,38.4
2019-01-30T11:01:40.914Z,38
2019-01-30T11:02:30.366Z,37.6
2019-01-30T11:03:20.563Z,37.3
2019-01-30T11:04:11.034Z,36.8
2019-01-30T11:05:00.820Z,36.4
2019-01-30T11:05:51.163Z,36.1
2019-01-30T11:06:40.955Z,35.8
2019-01-30T11:07:30.993Z,35.4
2019-01-30T11:08:21.428Z,35.1
2019-01-30T11:09:10.822Z,34.8
2019-01-30T11:10:00.897Z,34.4
2019-01-30T11:10:54.340Z,34.1
2019-01-30T11:11:41.560Z,33.8
2019-01-30T11:12:30.787Z,33.6
2019-01-30T11:13:21.685Z,33.3
2019-01-30T11:14:11.457Z,33
2019-01-30T11:15:04.118Z,32.8
2019-01-30T11:15:50.549Z,32.5
2019-01-30T11:16:41.750Z,32.3
2019-01-30T11:17:31.954Z,32